sensor_id;sensor_type;location;lat;lon;timestamp;temperature;humidity
6672;DHT22;3372;48.690;12.362;2022-10-17T00:00:51;17.00;99.90
6672;DHT22;3372;48.690;12.362;2022-10-17T00:03:17;17.10;99.90
6672;DHT22;3372;48.690;12.362;2022-10-17T00:05:45;17.10;99.90
6672;DHT22;3372;48.690;12.362;2022-10-17T00:08:12;17.00;99.90
6672;DHT22;3372;48.690;12.362;2022-10-17T00:10:38;17.10;99.90
6672;DHT22;3372;48.690;12.362;2022-10-17T00:13:04;17.10;99.90
6672;DHT22;3372;48.690;12.362;2022-10-17T00:15:30;17.10;99.90
6672;DHT22;3372;48.690;12.362;2022-10-17T00:17:55;17.10;99.90
6672;DHT22;3372;48.690;12.362;2022-10-17T00:20:21;17.10;99.90
6672;DHT22;3372;48.690;12.362;2022-10-17T00:22:46;17.00;99.90
6672;DHT22;3372;48.690;12.362;2022-10-17T00:25:12;17.00;99.90
6672;DHT22;3372;48.690;12.362;2022-10-17T00:27:39;17.00;99.90
6672;DHT22;3372;48.690;12.362;2022-10-17T00:30:06;17.00;99.90
6672;DHT22;3372;48.690;12.362;2022-10-17T00:32:34;17.00;99.90
6672;DHT22;3372;48.690;12.362;2022-10-17T00:34:59;17.00;99.90
6672;DHT22;3372;48.690;12.362;2022-10-17T00:37:25;17.00;99.90
6672;DHT22;3372;48.690;12.362;2022-10-17T00:39:51;16.90;99.90
6672;DHT22;3372;48.690;12.362;2022-10-17T00:42:17;16.90;99.90
6672;DHT22;3372;48.690;12.362;2022-10-17T00:47:14;17.00;99.90
6672;DHT22;3372;48.690;12.362;2022-10-17T00:49:40;17.00;99.90
6672;DHT22;3372;48.690;12.362;2022-10-17T00:52:22;16.90;99.90
6672;DHT22;3372;48.690;12.362;2022-10-17T00:54:55;16.90;99.90
6672;DHT22;3372;48.690;12.362;2022-10-17T00:57:22;16.90;99.90
6672;DHT22;3372;48.690;12.362;2022-10-17T00:59:52;17.00;99.90
6672;DHT22;3372;48.690;12.362;2022-10-17T01:02:20;17.00;99.90
6672;DHT22;3372;48.690;12.362;2022-10-17T01:04:49;16.90;99.90
6672;DHT22;3372;48.690;12.362;2022-10-17T01:07:15;16.90;99.90
6672;DHT22;3372;48.690;12.362;2022-10-17T01:09:42;16.90;99.90
6672;DHT22;3372;48.690;12.362;2022-10-17T01:15:13;16.80;99.90
6672;DHT22;3372;48.690;12.362;2022-10-17T01:23:37;16.90;99.90
6672;DHT22;3372;48.690;12.362;2022-10-17T01:40:05;16.90;99.90
6672;DHT22;3372;48.690;12.362;2022-10-17T01:42:37;16.80;99.90
6672;DHT22;3372;48.690;12.362;2022-10-17T01:45:13;16.80;99.90
6672;DHT22;3372;48.690;12.362;2022-10-17T01:47:41;16.80;99.90
6672;DHT22;3372;48.690;12.362;2022-10-17T01:50:16;16.70;99.90
6672;DHT22;3372;48.690;12.362;2022-10-17T01:53:04;16.70;99.90
6672;DHT22;3372;48.690;12.362;2022-10-17T01:55:35;16.60;99.90
6672;DHT22;3372;48.690;12.362;2022-10-17T01:58:09;16.60;99.90
6672;DHT22;3372;48.690;12.362;2022-10-17T02:00:37;16.60;99.90
6672;DHT22;3372;48.690;12.362;2022-10-17T02:03:07;16.70;99.90
6672;DHT22;3372;48.690;12.362;2022-10-17T02:05:39;16.60;99.80
6672;DHT22;3372;48.690;12.362;2022-10-17T02:08:05;16.60;99.10
6672;DHT22;3372;48.690;12.362;2022-10-17T02:10:59;16.60;98.20
6672;DHT22;3372;48.690;12.362;2022-10-17T02:16:01;16.40;97.50
6672;DHT22;3372;48.690;12.362;2022-10-17T02:21:06;16.40;96.20
6672;DHT22;3372;48.690;12.362;2022-10-17T02:24:00;16.40;95.80
6672;DHT22;3372;48.690;12.362;2022-10-17T02:26:33;16.30;94.90
6672;DHT22;3372;48.690;12.362;2022-10-17T02:29:07;16.30;94.90
6672;DHT22;3372;48.690;12.362;2022-10-17T02:31:54;16.30;94.50
6672;DHT22;3372;48.690;12.362;2022-10-17T02:34:25;16.30;93.90
6672;DHT22;3372;48.690;12.362;2022-10-17T02:36:57;16.30;93.50
6672;DHT22;3372;48.690;12.362;2022-10-17T02:39:25;16.20;92.80
6672;DHT22;3372;48.690;12.362;2022-10-17T02:41:56;16.20;92.90
6672;DHT22;3372;48.690;12.362;2022-10-17T02:44:24;16.10;91.90
6672;DHT22;3372;48.690;12.362;2022-10-17T02:46:54;16.00;91.20
6672;DHT22;3372;48.690;12.362;2022-10-17T02:49:24;16.00;91.40
6672;DHT22;3372;48.690;12.362;2022-10-17T02:55:04;15.80;91.00
6672;DHT22;3372;48.690;12.362;2022-10-17T02:57:35;15.80;90.60
6672;DHT22;3372;48.690;12.362;2022-10-17T03:00:05;15.70;90.50
6672;DHT22;3372;48.690;12.362;2022-10-17T03:02:47;15.80;90.50
6672;DHT22;3372;48.690;12.362;2022-10-17T03:05:16;15.70;90.00
6672;DHT22;3372;48.690;12.362;2022-10-17T03:07:41;15.70;90.00
6672;DHT22;3372;48.690;12.362;2022-10-17T03:10:07;15.60;88.60
6672;DHT22;3372;48.690;12.362;2022-10-17T03:12:33;15.60;88.50
6672;DHT22;3372;48.690;12.362;2022-10-17T03:14:58;15.60;87.60
6672;DHT22;3372;48.690;12.362;2022-10-17T03:17:24;15.60;87.50
6672;DHT22;3372;48.690;12.362;2022-10-17T03:19:49;15.60;87.10
6672;DHT22;3372;48.690;12.362;2022-10-17T03:22:15;15.50;87.50
6672;DHT22;3372;48.690;12.362;2022-10-17T03:24:40;15.40;86.10
6672;DHT22;3372;48.690;12.362;2022-10-17T03:27:06;15.40;86.80
6672;DHT22;3372;48.690;12.362;2022-10-17T03:29:31;15.40;86.70
6672;DHT22;3372;48.690;12.362;2022-10-17T03:31:57;15.40;86.50
6672;DHT22;3372;48.690;12.362;2022-10-17T03:34:22;15.40;86.30
6672;DHT22;3372;48.690;12.362;2022-10-17T03:36:48;15.40;86.10
6672;DHT22;3372;48.690;12.362;2022-10-17T03:39:14;15.30;85.70
6672;DHT22;3372;48.690;12.362;2022-10-17T03:41:39;15.30;86.00
6672;DHT22;3372;48.690;12.362;2022-10-17T03:44:05;15.30;85.90
6672;DHT22;3372;48.690;12.362;2022-10-17T03:46:30;15.30;86.30
6672;DHT22;3372;48.690;12.362;2022-10-17T03:48:56;15.30;86.40
6672;DHT22;3372;48.690;12.362;2022-10-17T03:51:22;15.30;86.00
6672;DHT22;3372;48.690;12.362;2022-10-17T03:53:47;15.20;85.90
6672;DHT22;3372;48.690;12.362;2022-10-17T03:56:14;15.20;85.90
6672;DHT22;3372;48.690;12.362;2022-10-17T03:58:40;15.20;85.90
6672;DHT22;3372;48.690;12.362;2022-10-17T04:01:08;15.20;85.90
6672;DHT22;3372;48.690;12.362;2022-10-17T04:03:33;15.20;85.90
6672;DHT22;3372;48.690;12.362;2022-10-17T04:06:00;15.20;88.30
6672;DHT22;3372;48.690;12.362;2022-10-17T04:08:26;15.10;87.70
6672;DHT22;3372;48.690;12.362;2022-10-17T04:10:56;15.10;86.40
6672;DHT22;3372;48.690;12.362;2022-10-17T04:13:22;15.10;87.40
6672;DHT22;3372;48.690;12.362;2022-10-17T04:16:05;15.10;86.20
6672;DHT22;3372;48.690;12.362;2022-10-17T04:18:31;15.10;85.90
6672;DHT22;3372;48.690;12.362;2022-10-17T04:20:57;15.00;85.70
6672;DHT22;3372;48.690;12.362;2022-10-17T04:23:25;15.00;85.70
6672;DHT22;3372;48.690;12.362;2022-10-17T04:25:55;15.00;85.70
6672;DHT22;3372;48.690;12.362;2022-10-17T04:28:21;14.90;85.60
6672;DHT22;3372;48.690;12.362;2022-10-17T04:30:47;14.90;85.50
6672;DHT22;3372;48.690;12.362;2022-10-17T04:33:19;14.90;85.20
6672;DHT22;3372;48.690;12.362;2022-10-17T04:36:00;14.90;84.10
6672;DHT22;3372;48.690;12.362;2022-10-17T04:38:27;14.90;84.20
6672;DHT22;3372;48.690;12.362;2022-10-17T04:40:54;14.80;83.80
6672;DHT22;3372;48.690;12.362;2022-10-17T04:43:21;14.80;84.30
6672;DHT22;3372;48.690;12.362;2022-10-17T04:45:46;14.70;84.90
6672;DHT22;3372;48.690;12.362;2022-10-17T04:48:12;14.60;85.90
6672;DHT22;3372;48.690;12.362;2022-10-17T04:50:37;14.60;85.70
6672;DHT22;3372;48.690;12.362;2022-10-17T04:53:03;14.60;85.30
6672;DHT22;3372;48.690;12.362;2022-10-17T04:55:28;14.50;85.00
6672;DHT22;3372;48.690;12.362;2022-10-17T04:57:54;14.50;85.00
6672;DHT22;3372;48.690;12.362;2022-10-17T05:00:19;14.50;85.40
6672;DHT22;3372;48.690;12.362;2022-10-17T05:02:45;14.60;85.60
6672;DHT22;3372;48.690;12.362;2022-10-17T05:05:11;14.60;85.90
6672;DHT22;3372;48.690;12.362;2022-10-17T05:07:39;14.60;86.60
6672;DHT22;3372;48.690;12.362;2022-10-17T05:10:05;14.60;86.30
6672;DHT22;3372;48.690;12.362;2022-10-17T05:12:31;14.60;86.10
6672;DHT22;3372;48.690;12.362;2022-10-17T05:14:56;14.60;86.30
6672;DHT22;3372;48.690;12.362;2022-10-17T05:17:22;14.60;86.80
6672;DHT22;3372;48.690;12.362;2022-10-17T05:19:48;14.50;86.90
6672;DHT22;3372;48.690;12.362;2022-10-17T05:22:13;14.50;86.40
6672;DHT22;3372;48.690;12.362;2022-10-17T05:24:39;14.50;85.80
6672;DHT22;3372;48.690;12.362;2022-10-17T05:27:05;14.50;85.30
6672;DHT22;3372;48.690;12.362;2022-10-17T05:29:30;14.50;85.20
6672;DHT22;3372;48.690;12.362;2022-10-17T05:31:56;14.50;85.10
6672;DHT22;3372;48.690;12.362;2022-10-17T05:34:22;14.50;84.20
6672;DHT22;3372;48.690;12.362;2022-10-17T05:36:47;14.50;84.10
6672;DHT22;3372;48.690;12.362;2022-10-17T05:39:13;14.50;84.30
6672;DHT22;3372;48.690;12.362;2022-10-17T05:41:39;14.40;84.60
6672;DHT22;3372;48.690;12.362;2022-10-17T05:44:05;14.30;84.90
6672;DHT22;3372;48.690;12.362;2022-10-17T05:46:30;14.30;85.10
6672;DHT22;3372;48.690;12.362;2022-10-17T05:48:56;14.20;85.60
6672;DHT22;3372;48.690;12.362;2022-10-17T05:51:21;14.20;85.70
6672;DHT22;3372;48.690;12.362;2022-10-17T05:53:47;14.20;86.20
6672;DHT22;3372;48.690;12.362;2022-10-17T05:56:13;14.30;85.60
6672;DHT22;3372;48.690;12.362;2022-10-17T05:58:40;14.30;85.70
6672;DHT22;3372;48.690;12.362;2022-10-17T06:01:07;14.20;86.50
6672;DHT22;3372;48.690;12.362;2022-10-17T06:03:33;14.20;86.10
6672;DHT22;3372;48.690;12.362;2022-10-17T06:06:06;14.20;86.50
6672;DHT22;3372;48.690;12.362;2022-10-17T06:08:32;14.20;86.70
6672;DHT22;3372;48.690;12.362;2022-10-17T06:10:59;14.20;86.80
6672;DHT22;3372;48.690;12.362;2022-10-17T06:13:24;14.20;87.40
6672;DHT22;3372;48.690;12.362;2022-10-17T06:15:50;14.30;87.30
6672;DHT22;3372;48.690;12.362;2022-10-17T06:18:16;14.30;87.30
6672;DHT22;3372;48.690;12.362;2022-10-17T06:20:41;14.30;87.50
6672;DHT22;3372;48.690;12.362;2022-10-17T06:23:07;14.30;86.80
6672;DHT22;3372;48.690;12.362;2022-10-17T06:25:33;14.40;86.50
6672;DHT22;3372;48.690;12.362;2022-10-17T06:27:58;14.40;86.50
6672;DHT22;3372;48.690;12.362;2022-10-17T06:30:24;14.30;86.40
6672;DHT22;3372;48.690;12.362;2022-10-17T06:32:51;14.30;86.50
6672;DHT22;3372;48.690;12.362;2022-10-17T06:35:17;14.30;86.70
6672;DHT22;3372;48.690;12.362;2022-10-17T06:37:42;14.40;87.30
6672;DHT22;3372;48.690;12.362;2022-10-17T06:40:08;14.50;86.90
6672;DHT22;3372;48.690;12.362;2022-10-17T06:42:36;14.40;86.30
6672;DHT22;3372;48.690;12.362;2022-10-17T06:45:03;14.40;86.60
6672;DHT22;3372;48.690;12.362;2022-10-17T06:47:29;14.50;86.40
6672;DHT22;3372;48.690;12.362;2022-10-17T06:49:54;14.60;86.30
6672;DHT22;3372;48.690;12.362;2022-10-17T06:52:20;14.50;86.60
6672;DHT22;3372;48.690;12.362;2022-10-17T06:54:45;14.50;87.40
6672;DHT22;3372;48.690;12.362;2022-10-17T06:57:11;14.50;88.40
6672;DHT22;3372;48.690;12.362;2022-10-17T06:59:37;14.60;88.30
6672;DHT22;3372;48.690;12.362;2022-10-17T07:02:02;14.70;89.40
6672;DHT22;3372;48.690;12.362;2022-10-17T07:04:29;14.70;90.00
6672;DHT22;3372;48.690;12.362;2022-10-17T07:06:55;14.80;90.00
6672;DHT22;3372;48.690;12.362;2022-10-17T07:09:20;14.80;90.00
6672;DHT22;3372;48.690;12.362;2022-10-17T07:11:47;14.80;91.00
6672;DHT22;3372;48.690;12.362;2022-10-17T07:14:12;14.90;91.40
6672;DHT22;3372;48.690;12.362;2022-10-17T07:16:38;14.80;92.60
6672;DHT22;3372;48.690;12.362;2022-10-17T07:19:03;14.90;92.70
6672;DHT22;3372;48.690;12.362;2022-10-17T07:21:29;14.90;92.70
6672;DHT22;3372;48.690;12.362;2022-10-17T07:23:55;15.00;93.10
6672;DHT22;3372;48.690;12.362;2022-10-17T07:26:20;15.10;93.30
6672;DHT22;3372;48.690;12.362;2022-10-17T07:28:49;15.10;93.70
6672;DHT22;3372;48.690;12.362;2022-10-17T07:31:17;15.00;97.10
6672;DHT22;3372;48.690;12.362;2022-10-17T07:33:43;15.00;98.90
6672;DHT22;3372;48.690;12.362;2022-10-17T07:36:09;15.10;99.30
6672;DHT22;3372;48.690;12.362;2022-10-17T07:38:35;15.20;98.70
6672;DHT22;3372;48.690;12.362;2022-10-17T07:41:04;15.30;99.30
6672;DHT22;3372;48.690;12.362;2022-10-17T07:43:30;15.40;99.50
6672;DHT22;3372;48.690;12.362;2022-10-17T07:45:56;15.50;99.80
6672;DHT22;3372;48.690;12.362;2022-10-17T07:48:23;15.60;99.90
6672;DHT22;3372;48.690;12.362;2022-10-17T07:50:49;15.60;99.90
6672;DHT22;3372;48.690;12.362;2022-10-17T07:53:15;15.70;99.90
6672;DHT22;3372;48.690;12.362;2022-10-17T07:55:41;15.80;99.90
6672;DHT22;3372;48.690;12.362;2022-10-17T07:58:08;15.80;99.90
6672;DHT22;3372;48.690;12.362;2022-10-17T08:00:35;15.90;99.90
6672;DHT22;3372;48.690;12.362;2022-10-17T08:03:02;16.00;99.90
6672;DHT22;3372;48.690;12.362;2022-10-17T08:05:28;16.10;99.90
6672;DHT22;3372;48.690;12.362;2022-10-17T08:07:54;16.20;99.90
6672;DHT22;3372;48.690;12.362;2022-10-17T08:10:19;16.40;99.90
6672;DHT22;3372;48.690;12.362;2022-10-17T08:12:45;16.60;99.90
6672;DHT22;3372;48.690;12.362;2022-10-17T08:15:11;16.80;99.90
6672;DHT22;3372;48.690;12.362;2022-10-17T08:17:37;17.10;99.90
6672;DHT22;3372;48.690;12.362;2022-10-17T08:20:04;17.40;99.90
6672;DHT22;3372;48.690;12.362;2022-10-17T08:22:31;17.60;99.90
6672;DHT22;3372;48.690;12.362;2022-10-17T08:24:56;17.80;99.90
6672;DHT22;3372;48.690;12.362;2022-10-17T08:27:22;18.00;99.90
6672;DHT22;3372;48.690;12.362;2022-10-17T08:29:50;17.90;99.90
6672;DHT22;3372;48.690;12.362;2022-10-17T08:32:26;18.00;99.90
6672;DHT22;3372;48.690;12.362;2022-10-17T08:34:53;18.10;99.90
6672;DHT22;3372;48.690;12.362;2022-10-17T08:37:23;18.20;99.90
6672;DHT22;3372;48.690;12.362;2022-10-17T08:39:49;18.20;99.90
6672;DHT22;3372;48.690;12.362;2022-10-17T08:47:42;18.40;99.90
6672;DHT22;3372;48.690;12.362;2022-10-17T08:53:05;18.90;99.20
6672;DHT22;3372;48.690;12.362;2022-10-17T08:55:40;19.00;97.30
6672;DHT22;3372;48.690;12.362;2022-10-17T08:58:15;19.10;96.90
6672;DHT22;3372;48.690;12.362;2022-10-17T09:01:11;19.20;95.30
6672;DHT22;3372;48.690;12.362;2022-10-17T09:06:28;19.40;92.40
6672;DHT22;3372;48.690;12.362;2022-10-17T09:20:18;19.80;81.10
6672;DHT22;3372;48.690;12.362;2022-10-17T09:25:20;19.90;77.80
6672;DHT22;3372;48.690;12.362;2022-10-17T09:28:10;20.00;76.80
6672;DHT22;3372;48.690;12.362;2022-10-17T09:30:43;20.10;74.90
6672;DHT22;3372;48.690;12.362;2022-10-17T09:33:12;20.20;74.20
6672;DHT22;3372;48.690;12.362;2022-10-17T09:35:40;20.20;72.60
6672;DHT22;3372;48.690;12.362;2022-10-17T09:38:15;20.20;72.50
6672;DHT22;3372;48.690;12.362;2022-10-17T09:40:41;20.20;71.60
6672;DHT22;3372;48.690;12.362;2022-10-17T09:43:10;20.20;71.30
6672;DHT22;3372;48.690;12.362;2022-10-17T09:48:41;20.20;71.30
6672;DHT22;3372;48.690;12.362;2022-10-17T09:51:09;20.30;69.70
6672;DHT22;3372;48.690;12.362;2022-10-17T09:53:41;20.20;68.40
6672;DHT22;3372;48.690;12.362;2022-10-17T09:56:14;20.30;69.60
6672;DHT22;3372;48.690;12.362;2022-10-17T10:01:22;20.30;69.10
6672;DHT22;3372;48.690;12.362;2022-10-17T10:04:11;20.40;69.90
6672;DHT22;3372;48.690;12.362;2022-10-17T10:06:38;20.30;68.20
6672;DHT22;3372;48.690;12.362;2022-10-17T10:09:05;20.50;67.10
6672;DHT22;3372;48.690;12.362;2022-10-17T10:11:49;20.50;68.30
6672;DHT22;3372;48.690;12.362;2022-10-17T10:14:28;20.60;66.10
6672;DHT22;3372;48.690;12.362;2022-10-17T10:16:54;20.50;67.40
6672;DHT22;3372;48.690;12.362;2022-10-17T10:19:56;20.50;67.10
6672;DHT22;3372;48.690;12.362;2022-10-17T10:22:16;20.60;64.70
6672;DHT22;3372;48.690;12.362;2022-10-17T10:24:42;20.70;65.90
6672;DHT22;3372;48.690;12.362;2022-10-17T10:27:17;20.60;67.60
6672;DHT22;3372;48.690;12.362;2022-10-17T10:29:50;20.60;64.60
6672;DHT22;3372;48.690;12.362;2022-10-17T10:35:02;20.60;64.60
6672;DHT22;3372;48.690;12.362;2022-10-17T10:37:51;20.70;59.20
6672;DHT22;3372;48.690;12.362;2022-10-17T10:40:27;20.70;61.00
6672;DHT22;3372;48.690;12.362;2022-10-17T10:42:57;20.80;59.50
6672;DHT22;3372;48.690;12.362;2022-10-17T10:45:26;20.80;60.10
6672;DHT22;3372;48.690;12.362;2022-10-17T10:48:00;20.80;58.80
6672;DHT22;3372;48.690;12.362;2022-10-17T10:51:01;20.80;57.20
6672;DHT22;3372;48.690;12.362;2022-10-17T10:53:33;20.90;53.90
6672;DHT22;3372;48.690;12.362;2022-10-17T10:56:20;20.90;57.50
6672;DHT22;3372;48.690;12.362;2022-10-17T11:06:51;20.90;53.80
6672;DHT22;3372;48.690;12.362;2022-10-17T11:09:31;21.00;56.70
6672;DHT22;3372;48.690;12.362;2022-10-17T11:12:11;21.00;53.90
6672;DHT22;3372;48.690;12.362;2022-10-17T11:17:21;21.10;54.60
6672;DHT22;3372;48.690;12.362;2022-10-17T11:23:08;21.10;53.10
6672;DHT22;3372;48.690;12.362;2022-10-17T11:25:37;21.20;54.10
6672;DHT22;3372;48.690;12.362;2022-10-17T11:28:11;21.10;52.40
6672;DHT22;3372;48.690;12.362;2022-10-17T11:30:49;21.20;47.20
6672;DHT22;3372;48.690;12.362;2022-10-17T11:36:07;21.20;51.60
6672;DHT22;3372;48.690;12.362;2022-10-17T11:38:53;21.30;51.60
6672;DHT22;3372;48.690;12.362;2022-10-17T11:41:51;21.30;53.00
6672;DHT22;3372;48.690;12.362;2022-10-17T11:46:47;21.30;54.00
6672;DHT22;3372;48.690;12.362;2022-10-17T11:49:18;21.50;52.40
6672;DHT22;3372;48.690;12.362;2022-10-17T11:51:48;21.50;50.00
6672;DHT22;3372;48.690;12.362;2022-10-17T11:54:42;21.50;51.60
6672;DHT22;3372;48.690;12.362;2022-10-17T11:57:19;21.50;51.40
6672;DHT22;3372;48.690;12.362;2022-10-17T11:59:56;21.50;52.00
6672;DHT22;3372;48.690;12.362;2022-10-17T12:13:46;21.70;54.10
6672;DHT22;3372;48.690;12.362;2022-10-17T12:18:44;21.80;53.00
6672;DHT22;3372;48.690;12.362;2022-10-17T12:21:10;21.80;54.70
6672;DHT22;3372;48.690;12.362;2022-10-17T12:23:36;21.90;54.00
6672;DHT22;3372;48.690;12.362;2022-10-17T12:26:05;21.90;53.60
6672;DHT22;3372;48.690;12.362;2022-10-17T12:33:56;22.00;49.00
6672;DHT22;3372;48.690;12.362;2022-10-17T12:52:15;22.10;44.40
6672;DHT22;3372;48.690;12.362;2022-10-17T12:57:36;22.00;39.40
6672;DHT22;3372;48.690;12.362;2022-10-17T13:02:48;22.00;41.00
6672;DHT22;3372;48.690;12.362;2022-10-17T13:05:35;21.90;41.50
6672;DHT22;3372;48.690;12.362;2022-10-17T13:08:04;22.00;39.60
6672;DHT22;3372;48.690;12.362;2022-10-17T13:10:32;22.00;41.70
6672;DHT22;3372;48.690;12.362;2022-10-17T13:13:09;22.00;41.70
6672;DHT22;3372;48.690;12.362;2022-10-17T13:15:37;22.00;38.50
6672;DHT22;3372;48.690;12.362;2022-10-17T13:18:03;22.00;42.50
6672;DHT22;3372;48.690;12.362;2022-10-17T13:20:31;22.00;43.50
6672;DHT22;3372;48.690;12.362;2022-10-17T13:22:57;22.00;42.40
6672;DHT22;3372;48.690;12.362;2022-10-17T13:25:24;22.10;43.50
6672;DHT22;3372;48.690;12.362;2022-10-17T13:28:03;22.10;44.20
6672;DHT22;3372;48.690;12.362;2022-10-17T13:30:31;22.10;42.30
6672;DHT22;3372;48.690;12.362;2022-10-17T13:32:57;22.10;44.40
6672;DHT22;3372;48.690;12.362;2022-10-17T13:35:32;22.10;44.00
6672;DHT22;3372;48.690;12.362;2022-10-17T13:38:01;22.10;45.80
6672;DHT22;3372;48.690;12.362;2022-10-17T13:40:29;22.20;44.70
6672;DHT22;3372;48.690;12.362;2022-10-17T13:42:57;22.20;46.90
6672;DHT22;3372;48.690;12.362;2022-10-17T13:45:37;22.20;46.70
6672;DHT22;3372;48.690;12.362;2022-10-17T13:48:05;22.30;45.70
6672;DHT22;3372;48.690;12.362;2022-10-17T13:50:37;22.30;45.00
6672;DHT22;3372;48.690;12.362;2022-10-17T13:55:31;22.30;46.00
6672;DHT22;3372;48.690;12.362;2022-10-17T13:58:10;22.30;47.50
6672;DHT22;3372;48.690;12.362;2022-10-17T14:00:39;22.30;45.60
6672;DHT22;3372;48.690;12.362;2022-10-17T14:03:04;22.30;46.60
6672;DHT22;3372;48.690;12.362;2022-10-17T14:05:32;22.30;46.90
6672;DHT22;3372;48.690;12.362;2022-10-17T14:08:03;22.30;46.70
6672;DHT22;3372;48.690;12.362;2022-10-17T14:10:36;22.20;47.90
6672;DHT22;3372;48.690;12.362;2022-10-17T14:13:05;22.30;48.60
6672;DHT22;3372;48.690;12.362;2022-10-17T14:15:35;22.30;49.50
6672;DHT22;3372;48.690;12.362;2022-10-17T14:18:06;22.20;48.70
6672;DHT22;3372;48.690;12.362;2022-10-17T14:20:33;22.30;48.60
6672;DHT22;3372;48.690;12.362;2022-10-17T14:22:59;22.30;49.90
6672;DHT22;3372;48.690;12.362;2022-10-17T14:25:34;22.30;49.60
6672;DHT22;3372;48.690;12.362;2022-10-17T14:30:36;22.30;50.40
6672;DHT22;3372;48.690;12.362;2022-10-17T14:33:06;22.20;51.20
6672;DHT22;3372;48.690;12.362;2022-10-17T14:35:32;22.20;51.30
6672;DHT22;3372;48.690;12.362;2022-10-17T14:38:01;22.30;51.00
6672;DHT22;3372;48.690;12.362;2022-10-17T14:40:28;22.30;51.80
6672;DHT22;3372;48.690;12.362;2022-10-17T14:42:56;22.30;51.90
6672;DHT22;3372;48.690;12.362;2022-10-17T14:45:28;22.30;51.90
6672;DHT22;3372;48.690;12.362;2022-10-17T14:47:59;22.30;51.20
6672;DHT22;3372;48.690;12.362;2022-10-17T14:50:28;22.30;52.50
6672;DHT22;3372;48.690;12.362;2022-10-17T14:53:21;22.30;51.20
6672;DHT22;3372;48.690;12.362;2022-10-17T14:56:00;22.30;50.90
6672;DHT22;3372;48.690;12.362;2022-10-17T14:58:28;22.30;51.10
6672;DHT22;3372;48.690;12.362;2022-10-17T15:00:54;22.30;52.90
6672;DHT22;3372;48.690;12.362;2022-10-17T15:03:20;22.30;53.30
6672;DHT22;3372;48.690;12.362;2022-10-17T15:05:50;22.30;54.00
6672;DHT22;3372;48.690;12.362;2022-10-17T15:08:17;22.30;54.50
6672;DHT22;3372;48.690;12.362;2022-10-17T15:10:45;22.20;55.80
6672;DHT22;3372;48.690;12.362;2022-10-17T15:13:11;22.20;57.10
6672;DHT22;3372;48.690;12.362;2022-10-17T15:15:38;22.20;57.90
6672;DHT22;3372;48.690;12.362;2022-10-17T15:18:05;22.10;58.40
6672;DHT22;3372;48.690;12.362;2022-10-17T15:20:31;22.10;59.00
6672;DHT22;3372;48.690;12.362;2022-10-17T15:22:59;22.10;59.30
6672;DHT22;3372;48.690;12.362;2022-10-17T15:25:26;21.90;60.10
6672;DHT22;3372;48.690;12.362;2022-10-17T15:27:52;22.00;60.20
6672;DHT22;3372;48.690;12.362;2022-10-17T15:30:21;22.00;59.70
6672;DHT22;3372;48.690;12.362;2022-10-17T15:32:48;22.00;60.30
6672;DHT22;3372;48.690;12.362;2022-10-17T15:35:14;21.90;60.30
6672;DHT22;3372;48.690;12.362;2022-10-17T15:37:40;21.90;60.30
6672;DHT22;3372;48.690;12.362;2022-10-17T15:40:13;21.90;60.30
6672;DHT22;3372;48.690;12.362;2022-10-17T15:42:39;21.80;60.20
6672;DHT22;3372;48.690;12.362;2022-10-17T15:45:06;21.80;60.60
6672;DHT22;3372;48.690;12.362;2022-10-17T15:47:32;21.70;61.00
6672;DHT22;3372;48.690;12.362;2022-10-17T15:49:59;21.80;61.50
6672;DHT22;3372;48.690;12.362;2022-10-17T15:52:25;21.70;62.20
6672;DHT22;3372;48.690;12.362;2022-10-17T15:54:51;21.50;62.90
6672;DHT22;3372;48.690;12.362;2022-10-17T15:57:30;21.40;64.40
6672;DHT22;3372;48.690;12.362;2022-10-17T15:59:58;21.40;63.60
6672;DHT22;3372;48.690;12.362;2022-10-17T16:02:24;21.30;63.60
6672;DHT22;3372;48.690;12.362;2022-10-17T16:04:50;21.20;63.50
6672;DHT22;3372;48.690;12.362;2022-10-17T16:07:17;21.20;63.40
6672;DHT22;3372;48.690;12.362;2022-10-17T16:09:44;20.90;63.90
6672;DHT22;3372;48.690;12.362;2022-10-17T16:12:16;20.90;64.40
6672;DHT22;3372;48.690;12.362;2022-10-17T16:14:42;20.80;64.30
6672;DHT22;3372;48.690;12.362;2022-10-17T16:17:15;20.80;63.90
6672;DHT22;3372;48.690;12.362;2022-10-17T16:19:41;20.60;64.60
6672;DHT22;3372;48.690;12.362;2022-10-17T16:22:23;20.60;64.40
6672;DHT22;3372;48.690;12.362;2022-10-17T16:24:51;20.50;64.10
6672;DHT22;3372;48.690;12.362;2022-10-17T16:27:22;20.40;64.40
6672;DHT22;3372;48.690;12.362;2022-10-17T16:29:48;20.30;64.00
6672;DHT22;3372;48.690;12.362;2022-10-17T16:32:13;20.20;64.20
6672;DHT22;3372;48.690;12.362;2022-10-17T16:34:39;20.20;63.70
6672;DHT22;3372;48.690;12.362;2022-10-17T16:37:05;20.10;64.10
6672;DHT22;3372;48.690;12.362;2022-10-17T16:39:30;20.10;63.80
6672;DHT22;3372;48.690;12.362;2022-10-17T16:41:56;19.90;64.00
6672;DHT22;3372;48.690;12.362;2022-10-17T16:44:21;19.80;63.90
6672;DHT22;3372;48.690;12.362;2022-10-17T16:46:47;19.80;63.50
6672;DHT22;3372;48.690;12.362;2022-10-17T16:49:12;19.70;64.00
6672;DHT22;3372;48.690;12.362;2022-10-17T16:51:40;19.60;63.60
6672;DHT22;3372;48.690;12.362;2022-10-17T16:54:06;19.60;63.00
6672;DHT22;3372;48.690;12.362;2022-10-17T16:56:31;19.50;63.20
6672;DHT22;3372;48.690;12.362;2022-10-17T16:58:58;19.30;63.40
6672;DHT22;3372;48.690;12.362;2022-10-17T17:01:25;19.40;63.10
6672;DHT22;3372;48.690;12.362;2022-10-17T17:03:51;19.40;63.40
6672;DHT22;3372;48.690;12.362;2022-10-17T17:06:23;19.30;63.40
6672;DHT22;3372;48.690;12.362;2022-10-17T17:08:49;19.20;63.30
6672;DHT22;3372;48.690;12.362;2022-10-17T17:11:16;19.10;63.10
6672;DHT22;3372;48.690;12.362;2022-10-17T17:13:42;19.10;62.90
6672;DHT22;3372;48.690;12.362;2022-10-17T17:16:20;19.10;63.10
6672;DHT22;3372;48.690;12.362;2022-10-17T17:18:46;18.90;63.50
6672;DHT22;3372;48.690;12.362;2022-10-17T17:21:14;18.90;63.40
6672;DHT22;3372;48.690;12.362;2022-10-17T17:23:41;18.90;64.20
6672;DHT22;3372;48.690;12.362;2022-10-17T17:26:10;18.70;65.10
6672;DHT22;3372;48.690;12.362;2022-10-17T17:28:36;18.80;64.80
6672;DHT22;3372;48.690;12.362;2022-10-17T17:31:06;18.80;64.30
6672;DHT22;3372;48.690;12.362;2022-10-17T17:33:32;18.70;63.70
6672;DHT22;3372;48.690;12.362;2022-10-17T17:35:59;18.70;63.90
6672;DHT22;3372;48.690;12.362;2022-10-17T17:38:28;18.60;63.80
6672;DHT22;3372;48.690;12.362;2022-10-17T17:40:54;18.50;63.70
6672;DHT22;3372;48.690;12.362;2022-10-17T17:43:20;18.50;63.30
6672;DHT22;3372;48.690;12.362;2022-10-17T17:45:46;18.50;63.40
6672;DHT22;3372;48.690;12.362;2022-10-17T17:48:12;18.40;63.50
6672;DHT22;3372;48.690;12.362;2022-10-17T17:50:39;18.40;63.40
6672;DHT22;3372;48.690;12.362;2022-10-17T17:53:06;18.40;63.00
6672;DHT22;3372;48.690;12.362;2022-10-17T17:55:32;18.40;62.70
6672;DHT22;3372;48.690;12.362;2022-10-17T17:57:58;18.30;62.40
6672;DHT22;3372;48.690;12.362;2022-10-17T18:00:24;18.30;62.40
6672;DHT22;3372;48.690;12.362;2022-10-17T18:02:50;18.10;62.20
6672;DHT22;3372;48.690;12.362;2022-10-17T18:05:15;18.10;62.80
6672;DHT22;3372;48.690;12.362;2022-10-17T18:07:41;18.10;62.20